الصفحة الرئيسية
METAR-TAF:

METAR-TAF

مطار :

San Joaquín, بوليفيا

دائرة عرض: 13-04S, خط طول: 064-49W, ارتفاع: 140 متر

مراقبة الطقس الحالي

تاريخ ووقت الإصدار 14ساعات و 5 دقيقة قبل الساعة 21:00UTC
رياح هادئة
درجة الحرارة 29°درجة مئوية
الرطوبة 84%
ضغط 1008 hPa
الرؤية 10 كم أو أكثر
غيوم قليلة على ارتفاع 1700 قدم
غيوم قليلة على ارتفاع 2300 قدم, مزنة ركامية.
غيوم مفككة على ارتفاع 20000 قدم
عاصفة رعدية بالجوار,

METAR: SLJO 012100Z 00000KT 9999 VCTS FEW017 FEW023CB BKN200 29/26 Q1008

زمن: 07:05 (11:05 UTC)


TAF: مفقودة

أرصاد الطقس والتوقعات من أكثر من 4000 مطار (تقارير الطقس للمطار METAR والتنبؤ بالطقس بالمطارTAF).

المحطات المتاحة هي النقط الصفراء والحمراء على الخريطة.

حرك المؤشر فوق النقطة لمعرفة اسم المحطة.

ثم انقر لمعرفة أرصاد وتوقعات الطقس.

لتغيير الخارطة: اضغط على الأزرار الخضراء مع رمز الصليب الأسود للتكبير. على الزر الأخضر مع شرطة للتصغير، أو على الأسهم الخضراء للخرائط المجاورة.


METAR-TAF: